createdAt,value
2018-06-27T00:01:12.894Z,13.00
2018-06-27T00:03:41.384Z,12.90
2018-06-27T00:06:09.884Z,12.90
2018-06-27T00:08:38.362Z,12.90
2018-06-27T00:11:06.879Z,12.80
2018-06-27T00:13:35.472Z,12.80
2018-06-27T00:16:03.981Z,12.80
2018-06-27T00:18:32.552Z,12.70
2018-06-27T00:21:01.022Z,12.70
2018-06-27T00:23:29.531Z,12.60
2018-06-27T00:25:58.088Z,12.60
2018-06-27T00:28:26.570Z,12.60
2018-06-27T00:30:55.076Z,12.50
2018-06-27T00:33:23.654Z,12.50
2018-06-27T00:35:52.116Z,12.50
2018-06-27T00:38:20.599Z,12.50
2018-06-27T00:40:49.189Z,12.50
2018-06-27T00:43:17.792Z,12.40
2018-06-27T00:45:46.243Z,12.40
2018-06-27T00:48:14.750Z,12.40
2018-06-27T00:50:43.214Z,12.40
2018-06-27T00:53:11.743Z,12.30
2018-06-27T00:58:08.327Z,12.30
2018-06-27T01:00:36.814Z,12.30
2018-06-27T01:03:05.383Z,12.30
2018-06-27T01:05:33.868Z,12.30
2018-06-27T01:08:02.394Z,12.20
2018-06-27T01:10:30.948Z,12.20
2018-06-27T01:12:59.506Z,12.10
2018-06-27T01:15:28.008Z,12.10
2018-06-27T01:17:57.761Z,12.10
2018-06-27T01:20:26.790Z,12.10
2018-06-27T01:22:55.274Z,12.00
2018-06-27T01:25:23.763Z,12.00
2018-06-27T01:27:52.263Z,12.00
2018-06-27T01:30:20.824Z,12.00
2018-06-27T01:32:49.282Z,11.90
2018-06-27T01:35:17.803Z,11.90
2018-06-27T01:37:46.269Z,11.80
2018-06-27T01:40:14.835Z,11.80
2018-06-27T01:42:43.328Z,11.80
2018-06-27T01:45:11.819Z,11.80
2018-06-27T01:47:40.316Z,11.80
2018-06-27T01:50:08.784Z,11.80
2018-06-27T01:52:37.442Z,11.80
2018-06-27T01:55:06.005Z,11.70
2018-06-27T01:57:34.478Z,11.70
2018-06-27T02:00:02.997Z,11.70
2018-06-27T02:02:31.474Z,11.60
2018-06-27T02:04:59.935Z,11.60
2018-06-27T02:07:28.438Z,11.60
2018-06-27T02:09:56.906Z,11.60
2018-06-27T02:12:25.409Z,11.50
2018-06-27T02:14:53.873Z,11.60
2018-06-27T02:17:22.378Z,11.50
2018-06-27T02:19:50.867Z,11.50
2018-06-27T02:24:47.487Z,11.50
2018-06-27T02:27:15.965Z,11.50
2018-06-27T02:29:44.570Z,11.50
2018-06-27T02:32:13.070Z,11.50
2018-06-27T02:34:41.594Z,11.40
2018-06-27T02:37:10.068Z,11.40
2018-06-27T02:39:38.540Z,11.40
2018-06-27T02:42:07.037Z,11.30
2018-06-27T02:44:35.574Z,11.30
2018-06-27T02:47:04.143Z,11.30
2018-06-27T02:49:32.817Z,11.30
2018-06-27T02:52:01.575Z,11.30
2018-06-27T02:54:30.134Z,11.30
2018-06-27T02:56:58.653Z,11.20
2018-06-27T02:59:27.123Z,11.30
2018-06-27T03:01:55.599Z,11.30
2018-06-27T03:04:24.100Z,11.20
2018-06-27T03:06:52.734Z,11.20
2018-06-27T03:09:21.306Z,11.20
2018-06-27T03:11:49.785Z,11.20
2018-06-27T03:14:18.362Z,11.20
2018-06-27T03:16:46.896Z,11.20
2018-06-27T03:19:15.407Z,11.10
2018-06-27T03:21:44.143Z,11.10
2018-06-27T03:24:12.634Z,11.10
2018-06-27T03:26:41.119Z,11.10
2018-06-27T03:29:09.686Z,11.10
2018-06-27T03:31:38.187Z,11.10
2018-06-27T03:36:34.870Z,11.10
2018-06-27T03:39:03.710Z,11.00
2018-06-27T03:41:32.238Z,11.10
2018-06-27T03:44:00.874Z,11.10
2018-06-27T03:46:29.577Z,11.10
2018-06-27T03:48:58.315Z,11.10
2018-06-27T03:51:26.866Z,11.00
2018-06-27T03:53:57.370Z,11.00
2018-06-27T03:56:26.549Z,11.10
2018-06-27T03:58:55.233Z,11.10
2018-06-27T04:01:23.802Z,11.10
2018-06-27T04:03:52.397Z,11.10
2018-06-27T04:06:20.972Z,11.10
2018-06-27T04:08:49.448Z,11.10
2018-06-27T04:11:18.158Z,11.10
2018-06-27T04:13:46.721Z,11.20
2018-06-27T04:16:15.247Z,11.20
2018-06-27T04:18:43.831Z,11.10
2018-06-27T04:21:12.312Z,11.10
2018-06-27T04:23:40.827Z,11.30
2018-06-27T04:26:09.287Z,11.30
2018-06-27T04:31:06.506Z,11.40
2018-06-27T04:33:34.965Z,11.50
2018-06-27T04:36:03.517Z,11.50
2018-06-27T04:38:32.030Z,11.50
2018-06-27T04:41:00.615Z,11.60
2018-06-27T04:43:29.075Z,11.60
2018-06-27T04:45:57.594Z,11.70
2018-06-27T04:48:26.062Z,11.80
2018-06-27T04:50:54.656Z,11.80
2018-06-27T04:53:24.075Z,11.80
2018-06-27T04:55:52.591Z,11.70
2018-06-27T04:58:21.072Z,11.80
2018-06-27T05:00:49.550Z,11.90
2018-06-27T05:03:18.041Z,12.00
2018-06-27T05:05:46.564Z,12.10
2018-06-27T05:08:15.533Z,12.20
2018-06-27T05:10:44.213Z,12.20
2018-06-27T05:13:12.709Z,12.40
2018-06-27T05:15:41.231Z,12.50
2018-06-27T05:18:10.290Z,12.60
2018-06-27T05:20:38.773Z,12.80
2018-06-27T05:23:07.441Z,13.10
2018-06-27T05:25:36.064Z,13.30
2018-06-27T05:28:04.584Z,13.30
2018-06-27T05:30:33.236Z,13.20
2018-06-27T05:33:01.765Z,13.20
2018-06-27T05:35:30.241Z,13.20
2018-06-27T05:37:58.731Z,13.30
2018-06-27T05:40:27.322Z,13.40
2018-06-27T05:42:56.059Z,13.50
2018-06-27T05:45:24.611Z,13.60
2018-06-27T05:47:53.120Z,13.80
2018-06-27T05:50:21.852Z,14.00
2018-06-27T05:52:50.359Z,14.20
2018-06-27T05:55:19.946Z,14.30
2018-06-27T05:57:48.478Z,14.40
2018-06-27T06:00:16.974Z,14.50
2018-06-27T06:02:45.486Z,14.50
2018-06-27T06:05:13.965Z,14.60
2018-06-27T06:07:42.594Z,14.70
2018-06-27T06:12:39.384Z,14.90
2018-06-27T06:15:07.935Z,15.10
2018-06-27T06:20:04.661Z,15.40
2018-06-27T06:22:33.128Z,15.50
2018-06-27T06:25:01.728Z,15.70
2018-06-27T06:27:30.210Z,15.90
2018-06-27T06:29:58.719Z,16.10
2018-06-27T06:32:27.278Z,16.20
2018-06-27T06:35:01.356Z,16.40
2018-06-27T06:37:29.877Z,16.50
2018-06-27T06:39:58.773Z,16.60
2018-06-27T06:42:27.283Z,16.70
2018-06-27T06:47:24.269Z,16.70
2018-06-27T06:49:52.765Z,17.00
2018-06-27T06:52:21.259Z,17.60
2018-06-27T06:54:49.783Z,17.90
2018-06-27T06:59:46.509Z,18.80
2018-06-27T07:02:15.003Z,19.60
2018-06-27T07:04:43.778Z,20.60
2018-06-27T07:07:12.366Z,21.20
2018-06-27T07:09:41.224Z,22.10
2018-06-27T07:12:09.684Z,23.00
2018-06-27T07:14:38.176Z,23.40
2018-06-27T07:17:06.630Z,23.70
2018-06-27T07:19:35.115Z,24.30
2018-06-27T07:22:03.676Z,25.10
2018-06-27T07:24:32.134Z,25.20
2018-06-27T07:27:00.658Z,25.60
2018-06-27T07:29:29.151Z,26.40
2018-06-27T07:31:57.705Z,25.60
2018-06-27T07:34:26.303Z,26.10
2018-06-27T07:36:54.808Z,26.80
2018-06-27T07:39:23.256Z,26.90
2018-06-27T07:41:51.766Z,27.30
2018-06-27T07:44:20.275Z,26.70
2018-06-27T07:46:48.708Z,26.50
2018-06-27T07:49:17.182Z,27.30
2018-06-27T07:51:45.712Z,27.10
2018-06-27T07:54:14.233Z,28.30
2018-06-27T07:56:42.695Z,28.70
2018-06-27T07:59:11.242Z,27.80
2018-06-27T08:01:39.810Z,27.40
2018-06-27T08:04:08.343Z,27.70
2018-06-27T08:06:42.052Z,27.90
2018-06-27T08:09:11.255Z,28.20
2018-06-27T08:11:40.733Z,28.40
2018-06-27T08:14:09.275Z,28.70
2018-06-27T08:16:37.735Z,29.10
2018-06-27T08:19:06.313Z,29.00
2018-06-27T08:21:34.792Z,28.50
2018-06-27T08:24:03.723Z,29.30
2018-06-27T08:26:32.200Z,29.30
2018-06-27T08:29:00.738Z,30.20
2018-06-27T08:31:29.282Z,29.80
2018-06-27T08:33:57.743Z,28.80
2018-06-27T08:36:26.248Z,28.00
2018-06-27T08:38:54.764Z,28.50
2018-06-27T08:41:23.623Z,29.80
2018-06-27T08:43:52.132Z,30.70
2018-06-27T08:46:20.837Z,30.30
2018-06-27T08:48:49.619Z,31.10
2018-06-27T08:51:18.319Z,31.50
2018-06-27T08:53:46.839Z,31.70
2018-06-27T08:56:15.297Z,32.40
2018-06-27T08:58:43.870Z,32.70
2018-06-27T09:01:12.464Z,32.50
2018-06-27T09:03:40.993Z,31.70
2018-06-27T09:08:37.666Z,31.30
2018-06-27T09:11:06.232Z,32.60
2018-06-27T09:13:34.819Z,33.20
2018-06-27T09:16:03.288Z,32.90
2018-06-27T09:18:31.866Z,32.00
2018-06-27T09:21:00.317Z,30.80
2018-06-27T09:23:28.811Z,31.00
2018-06-27T09:25:57.301Z,31.10
2018-06-27T09:28:25.779Z,31.20
2018-06-27T09:30:54.313Z,32.70
2018-06-27T09:33:22.788Z,33.80
2018-06-27T09:35:51.239Z,32.50
2018-06-27T09:38:19.748Z,31.30
2018-06-27T09:40:48.209Z,32.00
2018-06-27T09:43:16.690Z,33.20
2018-06-27T09:45:45.158Z,32.80
2018-06-27T09:48:13.631Z,31.60
2018-06-27T09:50:42.143Z,30.80
2018-06-27T09:53:10.726Z,29.70
2018-06-27T09:55:39.252Z,28.60
2018-06-27T09:58:07.755Z,30.00
2018-06-27T10:00:38.194Z,31.50
2018-06-27T10:03:07.673Z,31.70
2018-06-27T10:05:36.747Z,33.30
2018-06-27T10:08:05.299Z,34.50
2018-06-27T10:10:33.782Z,34.60
2018-06-27T10:13:02.283Z,35.50
2018-06-27T10:15:30.783Z,36.40
2018-06-27T10:17:59.503Z,36.40
2018-06-27T10:20:28.272Z,36.30
2018-06-27T10:22:56.948Z,36.40
2018-06-27T10:25:25.488Z,36.30
2018-06-27T10:27:54.202Z,36.40
2018-06-27T10:30:23.122Z,34.30
2018-06-27T10:32:51.743Z,32.90
2018-06-27T10:35:20.608Z,33.40
2018-06-27T10:37:49.563Z,34.70
2018-06-27T10:40:18.107Z,33.90
2018-06-27T10:42:46.583Z,32.50
2018-06-27T10:45:15.065Z,31.60
2018-06-27T10:47:43.579Z,30.50
2018-06-27T10:50:12.141Z,28.80
2018-06-27T10:52:40.628Z,27.60
2018-06-27T10:55:14.567Z,27.20
2018-06-27T10:57:43.067Z,27.10
2018-06-27T11:00:11.890Z,26.80
2018-06-27T11:02:40.469Z,27.40
2018-06-27T11:05:09.243Z,29.00
2018-06-27T11:07:38.082Z,30.90
2018-06-27T11:10:06.622Z,31.70
2018-06-27T11:12:35.207Z,31.90
2018-06-27T11:15:03.806Z,30.10
2018-06-27T11:17:32.284Z,28.90
2018-06-27T11:20:00.765Z,28.90
2018-06-27T11:22:29.298Z,28.90
2018-06-27T11:24:57.783Z,28.70
2018-06-27T11:27:26.349Z,28.20
2018-06-27T11:29:54.810Z,27.50
2018-06-27T11:32:23.311Z,28.10
2018-06-27T11:34:51.767Z,28.30
2018-06-27T11:37:20.248Z,28.60
2018-06-27T11:39:48.696Z,28.40
2018-06-27T11:42:17.242Z,28.10
2018-06-27T11:44:45.738Z,27.90
2018-06-27T11:49:42.431Z,28.10
2018-06-27T11:52:10.955Z,28.00
2018-06-27T11:54:40.681Z,28.00
2018-06-27T11:57:09.512Z,28.00
2018-06-27T11:59:38.102Z,27.40
2018-06-27T12:02:06.757Z,27.20
2018-06-27T12:04:35.315Z,27.00
2018-06-27T12:07:03.842Z,26.80
2018-06-27T12:09:32.383Z,27.00
2018-06-27T12:12:00.872Z,27.00
2018-06-27T12:14:29.491Z,27.00
2018-06-27T12:16:58.098Z,27.10
2018-06-27T12:19:26.740Z,27.20
2018-06-27T12:21:55.299Z,27.00
2018-06-27T12:24:23.790Z,27.00
2018-06-27T12:26:52.341Z,27.00
2018-06-27T12:29:20.848Z,26.80
2018-06-27T12:31:49.319Z,26.90
2018-06-27T12:34:17.819Z,27.00
2018-06-27T12:36:46.324Z,27.40
2018-06-27T12:39:14.780Z,27.60
2018-06-27T12:41:43.282Z,27.50
2018-06-27T12:44:11.810Z,27.40
2018-06-27T12:46:40.339Z,27.50
2018-06-27T12:49:08.833Z,27.40
2018-06-27T12:51:37.322Z,27.60
2018-06-27T12:54:05.933Z,27.80
2018-06-27T12:56:34.378Z,27.60
2018-06-27T12:59:02.885Z,27.50
2018-06-27T13:01:31.366Z,27.40
2018-06-27T13:03:59.922Z,27.40
2018-06-27T13:06:28.392Z,27.50
2018-06-27T13:08:56.988Z,27.50
2018-06-27T13:11:25.563Z,27.40
2018-06-27T13:13:54.077Z,27.00
2018-06-27T13:16:22.601Z,26.90
2018-06-27T13:18:51.111Z,26.90
2018-06-27T13:21:19.660Z,27.00
2018-06-27T13:23:48.217Z,27.10
2018-06-27T13:26:16.711Z,27.50
2018-06-27T13:28:45.228Z,27.50
2018-06-27T13:31:13.723Z,27.60
2018-06-27T13:33:42.211Z,27.50
2018-06-27T13:36:10.726Z,27.50
2018-06-27T13:38:39.217Z,27.70
2018-06-27T13:41:07.734Z,27.60
2018-06-27T13:43:36.326Z,27.50
2018-06-27T13:46:05.734Z,27.40
2018-06-27T13:48:34.265Z,27.10
2018-06-27T13:51:02.788Z,26.40
2018-06-27T13:53:31.300Z,25.80
2018-06-27T13:55:59.822Z,25.30
2018-06-27T13:58:28.300Z,25.30
2018-06-27T14:00:56.909Z,25.70
2018-06-27T14:03:25.458Z,26.10
2018-06-27T14:05:53.946Z,26.20
2018-06-27T14:08:22.882Z,26.30
2018-06-27T14:10:51.627Z,25.60
2018-06-27T14:13:21.586Z,25.90
2018-06-27T14:15:50.056Z,26.10
2018-06-27T14:18:18.554Z,26.40
2018-06-27T14:20:47.047Z,26.40
2018-06-27T14:23:15.551Z,26.50
2018-06-27T14:25:44.498Z,26.40
2018-06-27T14:28:13.025Z,26.60
2018-06-27T14:30:41.498Z,26.80
2018-06-27T14:33:10.025Z,26.70
2018-06-27T14:35:38.536Z,26.60
2018-06-27T14:38:07.048Z,26.60
2018-06-27T14:40:35.560Z,26.50
2018-06-27T14:43:04.048Z,26.40
2018-06-27T14:45:32.604Z,26.00
2018-06-27T14:48:01.205Z,25.30
2018-06-27T14:50:30.011Z,24.90
2018-06-27T14:52:58.631Z,24.60
2018-06-27T14:55:27.155Z,24.70
2018-06-27T14:57:55.693Z,24.80
2018-06-27T15:00:24.259Z,24.80
2018-06-27T15:02:52.800Z,25.00
2018-06-27T15:05:21.503Z,25.10
2018-06-27T15:07:50.035Z,25.30
2018-06-27T15:10:18.669Z,25.30
2018-06-27T15:12:47.151Z,25.50
2018-06-27T15:15:15.624Z,25.50
2018-06-27T15:17:44.125Z,25.40
2018-06-27T15:20:12.629Z,25.20
2018-06-27T15:22:41.204Z,25.30
2018-06-27T15:25:09.718Z,25.30
2018-06-27T15:27:38.229Z,25.40
2018-06-27T15:30:06.831Z,25.40
2018-06-27T15:32:35.459Z,25.40
2018-06-27T15:35:04.078Z,25.30
2018-06-27T15:37:32.574Z,25.30
2018-06-27T15:40:01.499Z,25.30
2018-06-27T15:42:29.960Z,25.20
2018-06-27T15:44:58.533Z,25.00
2018-06-27T15:47:27.011Z,25.10
2018-06-27T15:49:55.567Z,25.20
2018-06-27T15:52:24.124Z,25.50
2018-06-27T15:54:52.695Z,25.60
2018-06-27T15:57:21.874Z,25.80
2018-06-27T15:59:54.946Z,25.50
2018-06-27T16:02:23.769Z,25.00
2018-06-27T16:04:52.271Z,24.70
2018-06-27T16:07:20.867Z,24.30
2018-06-27T16:09:50.523Z,24.00
2018-06-27T16:12:19.118Z,24.00
2018-06-27T16:14:47.947Z,24.10
2018-06-27T16:17:16.965Z,24.20
2018-06-27T16:19:45.561Z,24.30
2018-06-27T16:22:14.077Z,24.20
2018-06-27T16:24:42.607Z,24.10
2018-06-27T16:27:11.245Z,24.10
2018-06-27T16:29:40.046Z,24.20
2018-06-27T16:32:08.607Z,24.20
2018-06-27T16:34:37.197Z,24.10
2018-06-27T16:37:05.776Z,24.00
2018-06-27T16:39:34.404Z,24.20
2018-06-27T16:42:03.020Z,24.40
2018-06-27T16:44:31.773Z,24.40
2018-06-27T16:47:00.389Z,24.50
2018-06-27T16:49:28.892Z,24.60
2018-06-27T16:51:57.424Z,24.40
2018-06-27T16:54:26.255Z,24.40
2018-06-27T16:56:55.008Z,24.20
2018-06-27T16:59:23.778Z,24.00
2018-06-27T17:01:52.324Z,23.90
2018-06-27T17:04:20.981Z,23.90
2018-06-27T17:06:49.501Z,23.70
2018-06-27T17:09:18.022Z,23.60
2018-06-27T17:11:46.654Z,23.40
2018-06-27T17:14:15.185Z,23.40
2018-06-27T17:16:43.682Z,23.30
2018-06-27T17:19:12.191Z,23.20
2018-06-27T17:21:40.911Z,23.30
2018-06-27T17:24:09.452Z,23.20
2018-06-27T17:26:38.116Z,23.10
2018-06-27T17:29:06.640Z,23.00
2018-06-27T17:31:35.389Z,23.00
2018-06-27T17:34:03.944Z,23.00
2018-06-27T17:36:32.447Z,22.90
2018-06-27T17:39:01.075Z,22.80
2018-06-27T17:41:29.572Z,22.70
2018-06-27T17:43:58.179Z,22.70
2018-06-27T17:46:26.907Z,22.70
2018-06-27T17:48:56.045Z,22.70
2018-06-27T17:51:24.603Z,22.80
2018-06-27T17:53:53.241Z,22.80
2018-06-27T17:56:22.023Z,23.00
2018-06-27T17:58:50.596Z,22.90
2018-06-27T18:01:19.844Z,23.00
2018-06-27T18:03:48.864Z,22.90
2018-06-27T18:06:17.390Z,22.90
2018-06-27T18:08:46.208Z,22.90
2018-06-27T18:11:15.063Z,22.90
2018-06-27T18:13:43.806Z,22.70
2018-06-27T18:16:12.466Z,22.70
2018-06-27T18:21:09.519Z,22.60
2018-06-27T18:23:38.126Z,22.60
2018-06-27T18:26:07.056Z,22.50
2018-06-27T18:28:35.768Z,22.40
2018-06-27T18:31:04.504Z,22.20
2018-06-27T18:33:33.022Z,22.00
2018-06-27T18:36:01.898Z,21.70
2018-06-27T18:38:30.435Z,21.60
2018-06-27T18:40:58.975Z,21.50
2018-06-27T18:43:28.787Z,21.50
2018-06-27T18:45:57.752Z,21.40
2018-06-27T18:48:26.669Z,21.30
2018-06-27T18:50:55.534Z,21.30
2018-06-27T18:53:24.190Z,21.20
2018-06-27T18:55:52.795Z,20.90
2018-06-27T18:58:21.343Z,20.80
2018-06-27T19:00:50.144Z,20.70
2018-06-27T19:03:18.768Z,20.50
2018-06-27T19:05:47.313Z,20.50
2018-06-27T19:08:15.897Z,20.40
2018-06-27T19:10:44.506Z,20.30
2018-06-27T19:13:13.044Z,20.10
2018-06-27T19:15:44.369Z,20.00
2018-06-27T19:18:12.936Z,19.90
2018-06-27T19:20:41.521Z,19.70
2018-06-27T19:23:10.051Z,19.60
2018-06-27T19:28:02.494Z,19.50
2018-06-27T19:30:31.075Z,19.30
2018-06-27T19:32:59.679Z,19.20
2018-06-27T19:35:28.452Z,19.10
2018-06-27T19:37:56.992Z,19.00
2018-06-27T19:40:25.507Z,19.00
2018-06-27T19:42:54.063Z,18.90
2018-06-27T19:45:22.612Z,19.00
2018-06-27T19:47:51.131Z,19.00
2018-06-27T19:50:19.814Z,19.00
2018-06-27T19:52:48.486Z,19.00
2018-06-27T19:55:17.175Z,19.00
2018-06-27T19:57:45.840Z,19.00
2018-06-27T20:00:14.496Z,18.90
2018-06-27T20:02:43.101Z,18.90
2018-06-27T20:05:11.638Z,18.90
2018-06-27T20:07:40.418Z,18.80
2018-06-27T20:10:09.170Z,18.80
2018-06-27T20:12:37.716Z,18.70
2018-06-27T20:15:06.714Z,18.60
2018-06-27T20:17:35.370Z,18.60
2018-06-27T20:20:04.017Z,18.50
2018-06-27T20:22:32.592Z,18.40
2018-06-27T20:25:01.230Z,18.30
2018-06-27T20:27:29.990Z,18.30
2018-06-27T20:29:58.700Z,18.20
2018-06-27T20:32:28.096Z,18.10
2018-06-27T20:34:56.650Z,18.10
2018-06-27T20:37:25.223Z,18.00
2018-06-27T20:39:53.932Z,18.00
2018-06-27T20:42:22.751Z,18.00
2018-06-27T20:44:51.329Z,17.90
2018-06-27T20:47:19.986Z,17.80
2018-06-27T20:49:48.421Z,17.80
2018-06-27T20:52:17.154Z,17.80
2018-06-27T20:54:45.692Z,17.70
2018-06-27T20:57:14.448Z,17.70
2018-06-27T20:59:43.101Z,17.70
2018-06-27T21:02:11.818Z,17.70
2018-06-27T21:04:40.319Z,17.70
2018-06-27T21:07:09.085Z,17.70
2018-06-27T21:09:37.684Z,17.70
2018-06-27T21:12:06.407Z,17.70
2018-06-27T21:14:35.272Z,17.80
2018-06-27T21:17:04.497Z,17.70
2018-06-27T21:19:33.159Z,17.90
2018-06-27T21:22:01.924Z,17.90
2018-06-27T21:24:30.749Z,17.80
2018-06-27T21:26:59.623Z,17.80
2018-06-27T21:29:28.216Z,17.70
2018-06-27T21:31:56.729Z,17.70
2018-06-27T21:34:25.321Z,17.60
2018-06-27T21:36:53.796Z,17.50
2018-06-27T21:39:22.479Z,17.50
2018-06-27T21:41:51.045Z,17.40
2018-06-27T21:44:19.630Z,17.40
2018-06-27T21:46:48.179Z,17.40
2018-06-27T21:49:16.715Z,17.30
2018-06-27T21:51:45.249Z,17.30
2018-06-27T21:54:13.884Z,17.20
2018-06-27T21:56:42.396Z,17.20
2018-06-27T21:59:11.204Z,17.10
2018-06-27T22:01:40.161Z,17.00
2018-06-27T22:04:08.648Z,16.90
2018-06-27T22:06:37.163Z,16.80
2018-06-27T22:09:08.643Z,16.80
2018-06-27T22:11:37.287Z,16.70
2018-06-27T22:14:05.894Z,16.60
2018-06-27T22:16:34.419Z,16.50
2018-06-27T22:19:03.000Z,16.40
2018-06-27T22:21:31.581Z,16.40
2018-06-27T22:24:00.358Z,16.30
2018-06-27T22:26:28.913Z,16.30
2018-06-27T22:28:57.528Z,16.20
2018-06-27T22:31:26.077Z,16.20
2018-06-27T22:33:54.613Z,16.20
2018-06-27T22:36:29.543Z,16.10
2018-06-27T22:38:58.124Z,16.20
2018-06-27T22:41:26.636Z,16.20
2018-06-27T22:43:55.198Z,16.20
2018-06-27T22:46:23.698Z,16.10
2018-06-27T22:48:52.263Z,16.10
2018-06-27T22:51:20.835Z,16.00
2018-06-27T22:53:49.335Z,15.90
2018-06-27T22:56:17.895Z,15.80
2018-06-27T22:58:46.541Z,15.70
2018-06-27T23:01:15.124Z,15.60
2018-06-27T23:03:43.656Z,15.50
2018-06-27T23:06:12.168Z,15.40
2018-06-27T23:08:40.877Z,15.40
2018-06-27T23:11:09.561Z,15.30
2018-06-27T23:16:06.919Z,15.20
2018-06-27T23:18:35.870Z,15.00
2018-06-27T23:21:05.084Z,15.00
2018-06-27T23:23:33.621Z,15.00
2018-06-27T23:26:02.116Z,14.90
2018-06-27T23:28:30.771Z,14.80
2018-06-27T23:30:59.684Z,14.80
2018-06-27T23:33:28.410Z,14.80
2018-06-27T23:35:56.932Z,14.70
2018-06-27T23:38:25.457Z,14.70
2018-06-27T23:40:54.170Z,14.60
2018-06-27T23:43:22.742Z,14.60
2018-06-27T23:45:51.493Z,14.60
2018-06-27T23:48:20.356Z,14.60
2018-06-27T23:50:48.951Z,14.60
2018-06-27T23:53:17.481Z,14.60
2018-06-27T23:55:45.983Z,14.60
2018-06-27T23:58:14.595Z,14.60
